sensor_id;sensor_type;location;lat;lon;timestamp;temperature;humidity
3348;DHT22;1687;49.540;8.574;2022-07-29T00:00:05;24.40;44.60
3348;DHT22;1687;49.540;8.574;2022-07-29T00:02:33;24.40;44.70
3348;DHT22;1687;49.540;8.574;2022-07-29T00:04:58;24.40;44.70
3348;DHT22;1687;49.540;8.574;2022-07-29T00:07:24;24.40;44.70
3348;DHT22;1687;49.540;8.574;2022-07-29T00:09:50;24.30;44.70
3348;DHT22;1687;49.540;8.574;2022-07-29T00:12:16;24.30;44.70
3348;DHT22;1687;49.540;8.574;2022-07-29T00:14:42;24.30;44.80
3348;DHT22;1687;49.540;8.574;2022-07-29T00:17:07;24.30;44.80
3348;DHT22;1687;49.540;8.574;2022-07-29T00:19:33;24.30;44.80
3348;DHT22;1687;49.540;8.574;2022-07-29T00:21:59;24.20;44.80
3348;DHT22;1687;49.540;8.574;2022-07-29T00:24:25;24.10;44.80
3348;DHT22;1687;49.540;8.574;2022-07-29T00:26:51;24.10;45.00
3348;DHT22;1687;49.540;8.574;2022-07-29T00:29:17;24.00;44.90
3348;DHT22;1687;49.540;8.574;2022-07-29T00:31:43;23.90;44.90
3348;DHT22;1687;49.540;8.574;2022-07-29T00:34:09;23.80;44.90
3348;DHT22;1687;49.540;8.574;2022-07-29T00:36:54;23.70;45.10
3348;DHT22;1687;49.540;8.574;2022-07-29T00:39:20;23.60;45.20
3348;DHT22;1687;49.540;8.574;2022-07-29T00:41:46;23.50;45.20
3348;DHT22;1687;49.540;8.574;2022-07-29T00:44:11;23.40;45.20
3348;DHT22;1687;49.540;8.574;2022-07-29T00:46:37;23.40;45.40
3348;DHT22;1687;49.540;8.574;2022-07-29T00:49:03;23.30;45.50
3348;DHT22;1687;49.540;8.574;2022-07-29T00:51:30;23.20;45.50
3348;DHT22;1687;49.540;8.574;2022-07-29T00:53:56;23.20;45.60
3348;DHT22;1687;49.540;8.574;2022-07-29T00:56:22;23.10;45.50
3348;DHT22;1687;49.540;8.574;2022-07-29T00:58:48;22.80;45.60
3348;DHT22;1687;49.540;8.574;2022-07-29T01:01:14;22.60;45.80
3348;DHT22;1687;49.540;8.574;2022-07-29T01:03:40;22.50;46.10
3348;DHT22;1687;49.540;8.574;2022-07-29T01:06:05;22.50;46.20
3348;DHT22;1687;49.540;8.574;2022-07-29T01:08:32;22.50;46.30
3348;DHT22;1687;49.540;8.574;2022-07-29T01:10:59;22.40;46.20
3348;DHT22;1687;49.540;8.574;2022-07-29T01:13:26;22.40;46.40
3348;DHT22;1687;49.540;8.574;2022-07-29T01:15:57;22.40;46.30
3348;DHT22;1687;49.540;8.574;2022-07-29T01:18:32;22.30;46.50
3348;DHT22;1687;49.540;8.574;2022-07-29T01:27:41;22.00;46.50
3348;DHT22;1687;49.540;8.574;2022-07-29T01:30:13;21.90;46.60
3348;DHT22;1687;49.540;8.574;2022-07-29T01:32:39;21.70;46.80
3348;DHT22;1687;49.540;8.574;2022-07-29T01:35:31;21.60;46.90
3348;DHT22;1687;49.540;8.574;2022-07-29T01:38:13;21.50;47.10
3348;DHT22;1687;49.540;8.574;2022-07-29T01:41:14;21.50;47.20
3348;DHT22;1687;49.540;8.574;2022-07-29T01:43:57;21.70;47.60
3348;DHT22;1687;49.540;8.574;2022-07-29T01:46:33;21.80;47.60
3348;DHT22;1687;49.540;8.574;2022-07-29T01:49:09;21.90;47.50
3348;DHT22;1687;49.540;8.574;2022-07-29T01:51:58;21.80;47.40
3348;DHT22;1687;49.540;8.574;2022-07-29T01:54:34;21.80;47.50
3348;DHT22;1687;49.540;8.574;2022-07-29T01:57:03;21.70;47.40
3348;DHT22;1687;49.540;8.574;2022-07-29T01:59:30;21.70;47.60
3348;DHT22;1687;49.540;8.574;2022-07-29T02:01:59;21.60;47.50
3348;DHT22;1687;49.540;8.574;2022-07-29T02:04:27;21.60;47.60
3348;DHT22;1687;49.540;8.574;2022-07-29T02:06:58;21.50;47.70
3348;DHT22;1687;49.540;8.574;2022-07-29T02:09:30;21.50;47.70
3348;DHT22;1687;49.540;8.574;2022-07-29T02:11:59;21.50;47.70
3348;DHT22;1687;49.540;8.574;2022-07-29T02:14:29;21.60;47.80
3348;DHT22;1687;49.540;8.574;2022-07-29T02:16:58;21.50;47.80
3348;DHT22;1687;49.540;8.574;2022-07-29T02:19:26;21.50;47.80
3348;DHT22;1687;49.540;8.574;2022-07-29T02:21:53;21.40;47.80
3348;DHT22;1687;49.540;8.574;2022-07-29T02:24:21;21.40;47.90
3348;DHT22;1687;49.540;8.574;2022-07-29T02:26:49;21.30;47.90
3348;DHT22;1687;49.540;8.574;2022-07-29T02:29:16;21.30;48.10
3348;DHT22;1687;49.540;8.574;2022-07-29T02:31:46;21.10;48.00
3348;DHT22;1687;49.540;8.574;2022-07-29T02:34:13;21.10;48.10
3348;DHT22;1687;49.540;8.574;2022-07-29T02:36:41;21.00;48.30
3348;DHT22;1687;49.540;8.574;2022-07-29T02:39:08;21.00;48.30
3348;DHT22;1687;49.540;8.574;2022-07-29T02:41:48;20.90;48.40
3348;DHT22;1687;49.540;8.574;2022-07-29T02:44:20;20.90;48.40
3348;DHT22;1687;49.540;8.574;2022-07-29T02:52:39;20.90;48.70
3348;DHT22;1687;49.540;8.574;2022-07-29T02:55:26;20.90;48.80
3348;DHT22;1687;49.540;8.574;2022-07-29T02:58:02;21.00;48.90
3348;DHT22;1687;49.540;8.574;2022-07-29T03:00:31;21.00;48.90
3348;DHT22;1687;49.540;8.574;2022-07-29T03:03:03;21.00;48.90
3348;DHT22;1687;49.540;8.574;2022-07-29T03:05:31;21.00;49.00
3348;DHT22;1687;49.540;8.574;2022-07-29T03:08:00;21.00;49.00
3348;DHT22;1687;49.540;8.574;2022-07-29T03:10:27;21.00;49.10
3348;DHT22;1687;49.540;8.574;2022-07-29T03:12:55;21.00;49.20
3348;DHT22;1687;49.540;8.574;2022-07-29T03:15:22;21.10;49.30
3348;DHT22;1687;49.540;8.574;2022-07-29T03:17:49;21.10;49.40
3348;DHT22;1687;49.540;8.574;2022-07-29T03:20:15;21.10;49.30
3348;DHT22;1687;49.540;8.574;2022-07-29T03:22:43;21.30;49.90
3348;DHT22;1687;49.540;8.574;2022-07-29T03:25:13;21.50;50.00
3348;DHT22;1687;49.540;8.574;2022-07-29T03:27:40;21.80;50.20
3348;DHT22;1687;49.540;8.574;2022-07-29T03:30:08;21.90;50.00
3348;DHT22;1687;49.540;8.574;2022-07-29T03:32:34;22.00;50.10
3348;DHT22;1687;49.540;8.574;2022-07-29T03:35:00;22.10;50.10
3348;DHT22;1687;49.540;8.574;2022-07-29T03:37:26;22.10;50.00
3348;DHT22;1687;49.540;8.574;2022-07-29T03:39:54;22.00;49.70
3348;DHT22;1687;49.540;8.574;2022-07-29T03:42:24;22.00;49.90
3348;DHT22;1687;49.540;8.574;2022-07-29T03:44:52;21.90;49.90
3348;DHT22;1687;49.540;8.574;2022-07-29T03:47:23;21.80;49.80
3348;DHT22;1687;49.540;8.574;2022-07-29T03:49:53;21.80;49.90
3348;DHT22;1687;49.540;8.574;2022-07-29T03:52:20;21.80;49.90
3348;DHT22;1687;49.540;8.574;2022-07-29T03:54:46;21.70;49.90
3348;DHT22;1687;49.540;8.574;2022-07-29T03:57:14;21.70;49.90
3348;DHT22;1687;49.540;8.574;2022-07-29T03:59:41;21.70;50.00
3348;DHT22;1687;49.540;8.574;2022-07-29T04:02:10;21.70;50.00
3348;DHT22;1687;49.540;8.574;2022-07-29T04:04:36;21.70;50.00
3348;DHT22;1687;49.540;8.574;2022-07-29T04:07:03;21.70;50.00
3348;DHT22;1687;49.540;8.574;2022-07-29T04:09:29;21.70;50.10
3348;DHT22;1687;49.540;8.574;2022-07-29T04:11:55;21.70;50.10
3348;DHT22;1687;49.540;8.574;2022-07-29T04:14:21;21.70;50.10
3348;DHT22;1687;49.540;8.574;2022-07-29T04:16:47;21.70;50.20
3348;DHT22;1687;49.540;8.574;2022-07-29T04:19:13;21.70;50.20
3348;DHT22;1687;49.540;8.574;2022-07-29T04:21:39;21.80;50.20
3348;DHT22;1687;49.540;8.574;2022-07-29T04:24:06;21.70;50.20
3348;DHT22;1687;49.540;8.574;2022-07-29T04:26:32;21.70;50.80
3348;DHT22;1687;49.540;8.574;2022-07-29T04:28:58;21.70;50.20
3348;DHT22;1687;49.540;8.574;2022-07-29T04:31:23;21.80;50.30
3348;DHT22;1687;49.540;8.574;2022-07-29T04:33:49;21.80;50.30
3348;DHT22;1687;49.540;8.574;2022-07-29T04:36:15;21.80;50.30
3348;DHT22;1687;49.540;8.574;2022-07-29T04:38:40;21.80;50.40
3348;DHT22;1687;49.540;8.574;2022-07-29T04:41:06;21.80;50.30
3348;DHT22;1687;49.540;8.574;2022-07-29T04:43:34;21.90;50.40
3348;DHT22;1687;49.540;8.574;2022-07-29T04:46:01;21.90;50.40
3348;DHT22;1687;49.540;8.574;2022-07-29T04:48:27;21.90;50.40
3348;DHT22;1687;49.540;8.574;2022-07-29T04:50:53;21.90;50.40
3348;DHT22;1687;49.540;8.574;2022-07-29T04:53:19;21.90;50.40
3348;DHT22;1687;49.540;8.574;2022-07-29T04:55:44;22.00;50.50
3348;DHT22;1687;49.540;8.574;2022-07-29T04:58:10;22.00;50.50
3348;DHT22;1687;49.540;8.574;2022-07-29T05:00:37;22.10;50.50
3348;DHT22;1687;49.540;8.574;2022-07-29T05:03:03;22.00;50.40
3348;DHT22;1687;49.540;8.574;2022-07-29T05:05:29;22.10;50.50
3348;DHT22;1687;49.540;8.574;2022-07-29T05:07:55;22.10;50.40
3348;DHT22;1687;49.540;8.574;2022-07-29T05:10:20;22.10;50.50
3348;DHT22;1687;49.540;8.574;2022-07-29T05:12:46;22.20;50.60
3348;DHT22;1687;49.540;8.574;2022-07-29T05:15:12;22.30;50.60
3348;DHT22;1687;49.540;8.574;2022-07-29T05:17:38;22.40;50.60
3348;DHT22;1687;49.540;8.574;2022-07-29T05:20:05;22.40;50.60
3348;DHT22;1687;49.540;8.574;2022-07-29T05:22:32;22.50;50.70
3348;DHT22;1687;49.540;8.574;2022-07-29T05:24:57;22.50;50.60
3348;DHT22;1687;49.540;8.574;2022-07-29T05:27:23;22.60;50.60
3348;DHT22;1687;49.540;8.574;2022-07-29T05:29:49;22.70;50.70
3348;DHT22;1687;49.540;8.574;2022-07-29T05:32:14;22.80;50.70
3348;DHT22;1687;49.540;8.574;2022-07-29T05:34:41;22.80;50.60
3348;DHT22;1687;49.540;8.574;2022-07-29T05:37:06;22.90;50.70
3348;DHT22;1687;49.540;8.574;2022-07-29T05:39:32;23.00;50.80
3348;DHT22;1687;49.540;8.574;2022-07-29T05:41:58;23.10;50.80
3348;DHT22;1687;49.540;8.574;2022-07-29T05:44:23;23.20;50.80
3348;DHT22;1687;49.540;8.574;2022-07-29T05:46:49;23.30;50.90
3348;DHT22;1687;49.540;8.574;2022-07-29T05:49:15;23.40;50.90
3348;DHT22;1687;49.540;8.574;2022-07-29T05:51:40;23.50;50.90
3348;DHT22;1687;49.540;8.574;2022-07-29T05:54:06;23.60;50.90
3348;DHT22;1687;49.540;8.574;2022-07-29T05:56:32;23.70;51.00
3348;DHT22;1687;49.540;8.574;2022-07-29T05:58:57;23.80;51.10
3348;DHT22;1687;49.540;8.574;2022-07-29T06:01:23;23.90;51.20
3348;DHT22;1687;49.540;8.574;2022-07-29T06:03:49;24.00;51.30
3348;DHT22;1687;49.540;8.574;2022-07-29T06:06:15;24.10;51.40
3348;DHT22;1687;49.540;8.574;2022-07-29T06:08:41;24.20;52.00
3348;DHT22;1687;49.540;8.574;2022-07-29T06:11:06;24.30;51.50
3348;DHT22;1687;49.540;8.574;2022-07-29T06:13:33;24.40;51.60
3348;DHT22;1687;49.540;8.574;2022-07-29T06:15:59;24.40;51.60
3348;DHT22;1687;49.540;8.574;2022-07-29T06:18:25;24.60;52.30
3348;DHT22;1687;49.540;8.574;2022-07-29T06:20:51;24.60;51.70
3348;DHT22;1687;49.540;8.574;2022-07-29T06:23:18;24.70;51.80
3348;DHT22;1687;49.540;8.574;2022-07-29T06:25:44;24.70;51.70
3348;DHT22;1687;49.540;8.574;2022-07-29T06:28:10;24.60;51.80
3348;DHT22;1687;49.540;8.574;2022-07-29T06:30:37;24.70;52.30
3348;DHT22;1687;49.540;8.574;2022-07-29T06:33:03;24.80;52.30
3348;DHT22;1687;49.540;8.574;2022-07-29T06:35:29;24.80;52.40
3348;DHT22;1687;49.540;8.574;2022-07-29T06:37:55;24.80;52.50
3348;DHT22;1687;49.540;8.574;2022-07-29T06:40:21;24.80;52.70
3348;DHT22;1687;49.540;8.574;2022-07-29T06:43:05;24.90;52.70
3348;DHT22;1687;49.540;8.574;2022-07-29T06:45:34;24.90;52.90
3348;DHT22;1687;49.540;8.574;2022-07-29T06:48:00;25.00;53.00
3348;DHT22;1687;49.540;8.574;2022-07-29T06:50:26;25.20;53.10
3348;DHT22;1687;49.540;8.574;2022-07-29T06:52:51;25.40;53.00
3348;DHT22;1687;49.540;8.574;2022-07-29T06:55:17;25.40;53.00
3348;DHT22;1687;49.540;8.574;2022-07-29T06:57:45;25.40;53.00
3348;DHT22;1687;49.540;8.574;2022-07-29T07:00:12;25.50;53.10
3348;DHT22;1687;49.540;8.574;2022-07-29T07:02:38;25.50;52.90
3348;DHT22;1687;49.540;8.574;2022-07-29T07:05:04;25.50;53.10
3348;DHT22;1687;49.540;8.574;2022-07-29T07:07:31;25.50;53.10
3348;DHT22;1687;49.540;8.574;2022-07-29T07:09:57;25.50;53.30
3348;DHT22;1687;49.540;8.574;2022-07-29T07:12:23;25.60;53.30
3348;DHT22;1687;49.540;8.574;2022-07-29T07:14:48;25.60;53.20
3348;DHT22;1687;49.540;8.574;2022-07-29T07:17:14;25.60;53.10
3348;DHT22;1687;49.540;8.574;2022-07-29T07:19:40;25.50;53.20
3348;DHT22;1687;49.540;8.574;2022-07-29T07:22:05;25.70;53.40
3348;DHT22;1687;49.540;8.574;2022-07-29T07:24:31;25.80;53.40
3348;DHT22;1687;49.540;8.574;2022-07-29T07:26:57;25.80;53.20
3348;DHT22;1687;49.540;8.574;2022-07-29T07:29:22;25.80;53.10
3348;DHT22;1687;49.540;8.574;2022-07-29T07:31:48;25.60;53.10
3348;DHT22;1687;49.540;8.574;2022-07-29T07:34:14;25.60;53.20
3348;DHT22;1687;49.540;8.574;2022-07-29T07:36:39;25.60;53.20
3348;DHT22;1687;49.540;8.574;2022-07-29T07:39:05;25.70;53.30
3348;DHT22;1687;49.540;8.574;2022-07-29T07:41:31;26.00;54.20
3348;DHT22;1687;49.540;8.574;2022-07-29T07:43:57;26.30;53.50
3348;DHT22;1687;49.540;8.574;2022-07-29T07:46:22;26.40;53.10
3348;DHT22;1687;49.540;8.574;2022-07-29T07:48:48;26.40;53.20
3348;DHT22;1687;49.540;8.574;2022-07-29T07:51:14;26.50;53.20
3348;DHT22;1687;49.540;8.574;2022-07-29T07:53:40;26.50;53.20
3348;DHT22;1687;49.540;8.574;2022-07-29T07:56:07;26.50;52.90
3348;DHT22;1687;49.540;8.574;2022-07-29T07:58:32;26.40;53.00
3348;DHT22;1687;49.540;8.574;2022-07-29T08:00:59;26.30;52.90
3348;DHT22;1687;49.540;8.574;2022-07-29T08:03:25;26.20;52.80
3348;DHT22;1687;49.540;8.574;2022-07-29T08:05:51;26.30;53.10
3348;DHT22;1687;49.540;8.574;2022-07-29T08:08:17;26.40;53.10
3348;DHT22;1687;49.540;8.574;2022-07-29T08:10:43;26.40;52.80
3348;DHT22;1687;49.540;8.574;2022-07-29T08:13:18;26.30;52.80
3348;DHT22;1687;49.540;8.574;2022-07-29T08:15:45;26.30;52.90
3348;DHT22;1687;49.540;8.574;2022-07-29T08:18:12;26.30;52.90
3348;DHT22;1687;49.540;8.574;2022-07-29T08:20:38;26.20;52.70
3348;DHT22;1687;49.540;8.574;2022-07-29T08:23:06;26.20;53.00
3348;DHT22;1687;49.540;8.574;2022-07-29T08:25:35;26.10;52.90
3348;DHT22;1687;49.540;8.574;2022-07-29T08:28:03;26.10;53.10
3348;DHT22;1687;49.540;8.574;2022-07-29T08:30:29;26.20;53.10
3348;DHT22;1687;49.540;8.574;2022-07-29T08:32:55;26.20;53.00
3348;DHT22;1687;49.540;8.574;2022-07-29T08:35:22;26.20;53.10
3348;DHT22;1687;49.540;8.574;2022-07-29T08:37:48;26.40;53.30
3348;DHT22;1687;49.540;8.574;2022-07-29T08:40:14;26.50;53.10
3348;DHT22;1687;49.540;8.574;2022-07-29T08:42:40;26.70;53.20
3348;DHT22;1687;49.540;8.574;2022-07-29T08:45:06;27.00;53.10
3348;DHT22;1687;49.540;8.574;2022-07-29T08:47:33;27.10;53.00
3348;DHT22;1687;49.540;8.574;2022-07-29T08:50:02;27.30;52.90
3348;DHT22;1687;49.540;8.574;2022-07-29T08:52:29;27.30;52.60
3348;DHT22;1687;49.540;8.574;2022-07-29T08:54:59;27.30;52.50
3348;DHT22;1687;49.540;8.574;2022-07-29T08:57:25;27.50;52.80
3348;DHT22;1687;49.540;8.574;2022-07-29T08:59:52;27.80;52.50
3348;DHT22;1687;49.540;8.574;2022-07-29T09:02:21;27.90;52.40
3348;DHT22;1687;49.540;8.574;2022-07-29T09:04:48;28.00;52.30
3348;DHT22;1687;49.540;8.574;2022-07-29T09:07:16;28.00;51.80
3348;DHT22;1687;49.540;8.574;2022-07-29T09:09:43;28.00;52.00
3348;DHT22;1687;49.540;8.574;2022-07-29T09:12:10;28.20;52.00
3348;DHT22;1687;49.540;8.574;2022-07-29T09:14:40;28.20;51.70
3348;DHT22;1687;49.540;8.574;2022-07-29T09:17:06;28.10;51.70
3348;DHT22;1687;49.540;8.574;2022-07-29T09:19:34;28.10;51.70
3348;DHT22;1687;49.540;8.574;2022-07-29T09:22:03;28.10;52.20
3348;DHT22;1687;49.540;8.574;2022-07-29T09:29:46;28.40;51.70
3348;DHT22;1687;49.540;8.574;2022-07-29T09:32:12;28.50;51.50
3348;DHT22;1687;49.540;8.574;2022-07-29T09:34:38;28.60;51.30
3348;DHT22;1687;49.540;8.574;2022-07-29T09:37:04;28.60;51.10
3348;DHT22;1687;49.540;8.574;2022-07-29T09:39:38;28.60;51.10
3348;DHT22;1687;49.540;8.574;2022-07-29T09:42:11;28.50;51.10
3348;DHT22;1687;49.540;8.574;2022-07-29T09:44:46;28.60;51.10
3348;DHT22;1687;49.540;8.574;2022-07-29T09:47:14;28.60;50.90
3348;DHT22;1687;49.540;8.574;2022-07-29T09:52:19;28.40;51.00
3348;DHT22;1687;49.540;8.574;2022-07-29T09:54:46;28.50;50.90
3348;DHT22;1687;49.540;8.574;2022-07-29T09:57:28;28.40;50.80
3348;DHT22;1687;49.540;8.574;2022-07-29T10:02:35;28.50;50.80
3348;DHT22;1687;49.540;8.574;2022-07-29T10:05:05;28.70;50.90
3348;DHT22;1687;49.540;8.574;2022-07-29T10:07:46;28.80;50.80
3348;DHT22;1687;49.540;8.574;2022-07-29T10:10:21;29.00;50.80
3348;DHT22;1687;49.540;8.574;2022-07-29T10:12:55;29.10;50.60
3348;DHT22;1687;49.540;8.574;2022-07-29T10:15:27;29.10;50.40
3348;DHT22;1687;49.540;8.574;2022-07-29T10:17:55;29.00;50.20
3348;DHT22;1687;49.540;8.574;2022-07-29T10:20:22;28.80;50.30
3348;DHT22;1687;49.540;8.574;2022-07-29T10:22:50;28.80;50.40
3348;DHT22;1687;49.540;8.574;2022-07-29T10:25:17;28.90;50.30
3348;DHT22;1687;49.540;8.574;2022-07-29T10:27:43;29.00;50.30
3348;DHT22;1687;49.540;8.574;2022-07-29T10:30:12;29.00;50.30
3348;DHT22;1687;49.540;8.574;2022-07-29T10:35:59;29.60;50.40
3348;DHT22;1687;49.540;8.574;2022-07-29T10:42:05;29.70;50.00
3348;DHT22;1687;49.540;8.574;2022-07-29T10:44:50;29.70;49.90
3348;DHT22;1687;49.540;8.574;2022-07-29T10:47:25;29.70;49.70
3348;DHT22;1687;49.540;8.574;2022-07-29T10:50:02;29.70;49.70
3348;DHT22;1687;49.540;8.574;2022-07-29T10:52:53;29.80;49.50
3348;DHT22;1687;49.540;8.574;2022-07-29T10:55:39;29.70;49.40
3348;DHT22;1687;49.540;8.574;2022-07-29T10:58:18;29.80;49.50
3348;DHT22;1687;49.540;8.574;2022-07-29T11:00:46;30.00;49.40
3348;DHT22;1687;49.540;8.574;2022-07-29T11:06:07;30.00;48.90
3348;DHT22;1687;49.540;8.574;2022-07-29T11:08:34;30.00;49.00
3348;DHT22;1687;49.540;8.574;2022-07-29T11:16:13;29.80;48.50
3348;DHT22;1687;49.540;8.574;2022-07-29T11:21:36;29.60;48.60
3348;DHT22;1687;49.540;8.574;2022-07-29T11:24:17;29.70;49.20
3348;DHT22;1687;49.540;8.574;2022-07-29T11:26:44;29.80;48.50
3348;DHT22;1687;49.540;8.574;2022-07-29T11:29:18;29.70;48.40
3348;DHT22;1687;49.540;8.574;2022-07-29T11:31:47;29.90;48.60
3348;DHT22;1687;49.540;8.574;2022-07-29T11:34:30;30.10;48.50
3348;DHT22;1687;49.540;8.574;2022-07-29T11:45:08;30.50;48.20
3348;DHT22;1687;49.540;8.574;2022-07-29T11:47:51;30.60;48.00
3348;DHT22;1687;49.540;8.574;2022-07-29T11:50:31;30.90;48.10
3348;DHT22;1687;49.540;8.574;2022-07-29T11:52:59;31.10;47.90
3348;DHT22;1687;49.540;8.574;2022-07-29T11:55:25;31.00;47.40
3348;DHT22;1687;49.540;8.574;2022-07-29T11:57:59;30.70;47.10
3348;DHT22;1687;49.540;8.574;2022-07-29T12:00:42;30.50;47.30
3348;DHT22;1687;49.540;8.574;2022-07-29T12:03:12;30.30;47.30
3348;DHT22;1687;49.540;8.574;2022-07-29T12:05:50;30.20;47.50
3348;DHT22;1687;49.540;8.574;2022-07-29T12:08:22;30.40;47.60
3348;DHT22;1687;49.540;8.574;2022-07-29T12:10:51;30.50;47.50
3348;DHT22;1687;49.540;8.574;2022-07-29T12:13:19;30.60;47.40
3348;DHT22;1687;49.540;8.574;2022-07-29T12:15:54;30.60;47.20
3348;DHT22;1687;49.540;8.574;2022-07-29T12:18:22;30.50;47.10
3348;DHT22;1687;49.540;8.574;2022-07-29T12:20:48;30.50;47.30
3348;DHT22;1687;49.540;8.574;2022-07-29T12:23:15;30.70;47.20
3348;DHT22;1687;49.540;8.574;2022-07-29T12:25:43;30.80;47.00
3348;DHT22;1687;49.540;8.574;2022-07-29T12:28:12;30.90;46.90
3348;DHT22;1687;49.540;8.574;2022-07-29T12:30:41;30.90;46.60
3348;DHT22;1687;49.540;8.574;2022-07-29T12:33:18;30.90;46.50
3348;DHT22;1687;49.540;8.574;2022-07-29T12:35:48;30.90;46.30
3348;DHT22;1687;49.540;8.574;2022-07-29T12:38:16;31.00;46.30
3348;DHT22;1687;49.540;8.574;2022-07-29T12:40:43;31.20;46.40
3348;DHT22;1687;49.540;8.574;2022-07-29T12:43:17;31.40;46.20
3348;DHT22;1687;49.540;8.574;2022-07-29T12:45:49;31.60;46.00
3348;DHT22;1687;49.540;8.574;2022-07-29T12:48:17;31.70;45.60
3348;DHT22;1687;49.540;8.574;2022-07-29T12:50:57;31.50;45.10
3348;DHT22;1687;49.540;8.574;2022-07-29T12:53:25;31.40;45.30
3348;DHT22;1687;49.540;8.574;2022-07-29T12:55:53;31.50;45.10
3348;DHT22;1687;49.540;8.574;2022-07-29T13:03:57;31.60;44.60
3348;DHT22;1687;49.540;8.574;2022-07-29T13:06:41;31.70;44.40
3348;DHT22;1687;49.540;8.574;2022-07-29T13:09:16;31.70;44.20
3348;DHT22;1687;49.540;8.574;2022-07-29T13:11:45;31.90;44.30
3348;DHT22;1687;49.540;8.574;2022-07-29T13:14:14;32.00;43.90
3348;DHT22;1687;49.540;8.574;2022-07-29T13:22:00;32.20;43.50
3348;DHT22;1687;49.540;8.574;2022-07-29T13:24:26;31.90;43.20
3348;DHT22;1687;49.540;8.574;2022-07-29T13:26:52;32.00;43.50
3348;DHT22;1687;49.540;8.574;2022-07-29T13:29:18;32.20;43.20
3348;DHT22;1687;49.540;8.574;2022-07-29T13:31:43;32.20;43.10
3348;DHT22;1687;49.540;8.574;2022-07-29T13:34:09;32.40;43.00
3348;DHT22;1687;49.540;8.574;2022-07-29T13:36:36;32.50;43.10
3348;DHT22;1687;49.540;8.574;2022-07-29T13:39:02;32.50;42.30
3348;DHT22;1687;49.540;8.574;2022-07-29T13:41:28;32.40;41.80
3348;DHT22;1687;49.540;8.574;2022-07-29T13:43:54;32.20;42.00
3348;DHT22;1687;49.540;8.574;2022-07-29T13:46:20;32.40;42.10
3348;DHT22;1687;49.540;8.574;2022-07-29T13:48:46;32.40;41.80
3348;DHT22;1687;49.540;8.574;2022-07-29T13:51:12;32.30;41.60
3348;DHT22;1687;49.540;8.574;2022-07-29T13:53:37;32.00;41.50
3348;DHT22;1687;49.540;8.574;2022-07-29T13:56:03;31.80;41.40
3348;DHT22;1687;49.540;8.574;2022-07-29T13:58:31;31.70;41.60
3348;DHT22;1687;49.540;8.574;2022-07-29T14:00:58;31.70;41.70
3348;DHT22;1687;49.540;8.574;2022-07-29T14:03:24;31.70;41.60
3348;DHT22;1687;49.540;8.574;2022-07-29T14:05:50;31.70;41.50
3348;DHT22;1687;49.540;8.574;2022-07-29T14:08:16;31.90;41.70
3348;DHT22;1687;49.540;8.574;2022-07-29T14:10:42;32.10;41.60
3348;DHT22;1687;49.540;8.574;2022-07-29T14:13:08;32.20;41.30
3348;DHT22;1687;49.540;8.574;2022-07-29T14:15:33;32.30;41.30
3348;DHT22;1687;49.540;8.574;2022-07-29T14:17:59;32.50;41.10
3348;DHT22;1687;49.540;8.574;2022-07-29T14:20:25;32.70;41.00
3348;DHT22;1687;49.540;8.574;2022-07-29T14:22:51;33.10;41.00
3348;DHT22;1687;49.540;8.574;2022-07-29T14:25:16;33.60;41.00
3348;DHT22;1687;49.540;8.574;2022-07-29T14:27:43;33.90;40.70
3348;DHT22;1687;49.540;8.574;2022-07-29T14:30:09;34.40;40.30
3348;DHT22;1687;49.540;8.574;2022-07-29T14:32:35;35.10;40.30
3348;DHT22;1687;49.540;8.574;2022-07-29T14:35:01;35.40;39.60
3348;DHT22;1687;49.540;8.574;2022-07-29T14:37:27;35.20;39.20
3348;DHT22;1687;49.540;8.574;2022-07-29T14:39:52;34.90;38.90
3348;DHT22;1687;49.540;8.574;2022-07-29T14:42:19;35.00;39.30
3348;DHT22;1687;49.540;8.574;2022-07-29T14:44:45;35.50;39.20
3348;DHT22;1687;49.540;8.574;2022-07-29T14:47:10;36.40;39.20
3348;DHT22;1687;49.540;8.574;2022-07-29T14:49:36;37.10;38.80
3348;DHT22;1687;49.540;8.574;2022-07-29T14:52:02;37.60;38.10
3348;DHT22;1687;49.540;8.574;2022-07-29T14:54:28;37.90;37.40
3348;DHT22;1687;49.540;8.574;2022-07-29T14:56:54;38.30;37.30
3348;DHT22;1687;49.540;8.574;2022-07-29T14:59:22;38.80;36.80
3348;DHT22;1687;49.540;8.574;2022-07-29T15:01:48;38.70;36.60
3348;DHT22;1687;49.540;8.574;2022-07-29T15:04:15;38.00;35.70
3348;DHT22;1687;49.540;8.574;2022-07-29T15:06:40;37.10;35.60
3348;DHT22;1687;49.540;8.574;2022-07-29T15:09:06;36.30;35.70
3348;DHT22;1687;49.540;8.574;2022-07-29T15:11:32;35.70;35.80
3348;DHT22;1687;49.540;8.574;2022-07-29T15:13:57;35.30;36.00
3348;DHT22;1687;49.540;8.574;2022-07-29T15:16:23;34.60;35.90
3348;DHT22;1687;49.540;8.574;2022-07-29T15:18:49;33.90;36.10
3348;DHT22;1687;49.540;8.574;2022-07-29T15:21:15;33.40;36.60
3348;DHT22;1687;49.540;8.574;2022-07-29T15:23:41;33.20;36.70
3348;DHT22;1687;49.540;8.574;2022-07-29T15:26:06;33.20;36.60
3348;DHT22;1687;49.540;8.574;2022-07-29T15:28:32;33.00;36.90
3348;DHT22;1687;49.540;8.574;2022-07-29T15:30:58;33.00;37.20
3348;DHT22;1687;49.540;8.574;2022-07-29T15:33:23;32.90;37.00
3348;DHT22;1687;49.540;8.574;2022-07-29T15:35:50;32.80;37.20
3348;DHT22;1687;49.540;8.574;2022-07-29T15:38:16;33.00;37.40
3348;DHT22;1687;49.540;8.574;2022-07-29T15:40:42;33.50;37.70
3348;DHT22;1687;49.540;8.574;2022-07-29T15:43:09;33.70;37.00
3348;DHT22;1687;49.540;8.574;2022-07-29T15:45:36;33.20;36.90
3348;DHT22;1687;49.540;8.574;2022-07-29T15:48:06;32.80;37.10
3348;DHT22;1687;49.540;8.574;2022-07-29T15:50:33;32.40;37.60
3348;DHT22;1687;49.540;8.574;2022-07-29T15:52:59;32.20;37.70
3348;DHT22;1687;49.540;8.574;2022-07-29T15:55:25;32.10;37.90
3348;DHT22;1687;49.540;8.574;2022-07-29T15:57:51;32.00;38.00
3348;DHT22;1687;49.540;8.574;2022-07-29T16:00:17;31.80;37.80
3348;DHT22;1687;49.540;8.574;2022-07-29T16:02:43;31.40;37.90
3348;DHT22;1687;49.540;8.574;2022-07-29T16:05:09;31.20;38.00
3348;DHT22;1687;49.540;8.574;2022-07-29T16:07:36;31.10;38.20
3348;DHT22;1687;49.540;8.574;2022-07-29T16:10:03;31.00;38.20
3348;DHT22;1687;49.540;8.574;2022-07-29T16:12:29;31.00;38.20
3348;DHT22;1687;49.540;8.574;2022-07-29T16:14:54;31.00;38.30
3348;DHT22;1687;49.540;8.574;2022-07-29T16:17:20;31.00;38.20
3348;DHT22;1687;49.540;8.574;2022-07-29T16:19:46;30.90;38.40
3348;DHT22;1687;49.540;8.574;2022-07-29T16:22:12;30.90;38.40
3348;DHT22;1687;49.540;8.574;2022-07-29T16:24:38;30.90;38.60
3348;DHT22;1687;49.540;8.574;2022-07-29T16:27:04;30.70;38.80
3348;DHT22;1687;49.540;8.574;2022-07-29T16:29:30;30.30;39.40
3348;DHT22;1687;49.540;8.574;2022-07-29T16:31:56;30.20;40.20
3348;DHT22;1687;49.540;8.574;2022-07-29T16:34:21;30.20;40.70
3348;DHT22;1687;49.540;8.574;2022-07-29T16:36:47;30.20;40.90
3348;DHT22;1687;49.540;8.574;2022-07-29T16:39:12;30.20;40.80
3348;DHT22;1687;49.540;8.574;2022-07-29T16:41:38;30.20;41.10
3348;DHT22;1687;49.540;8.574;2022-07-29T16:44:04;30.10;41.10
3348;DHT22;1687;49.540;8.574;2022-07-29T16:46:29;30.10;41.20
3348;DHT22;1687;49.540;8.574;2022-07-29T16:48:55;30.00;41.20
3348;DHT22;1687;49.540;8.574;2022-07-29T16:51:21;30.00;41.40
3348;DHT22;1687;49.540;8.574;2022-07-29T16:53:47;30.00;41.50
3348;DHT22;1687;49.540;8.574;2022-07-29T16:56:12;30.00;41.40
3348;DHT22;1687;49.540;8.574;2022-07-29T16:58:38;30.00;41.50
3348;DHT22;1687;49.540;8.574;2022-07-29T17:01:04;30.00;41.40
3348;DHT22;1687;49.540;8.574;2022-07-29T17:03:30;30.00;41.40
3348;DHT22;1687;49.540;8.574;2022-07-29T17:05:56;30.00;41.40